Terminal Aerodrome Forecast
Issued by NWS Sterling, VA

Current Version | Previous Version | Text Only | Print | Product List | Glossary Off
Versions: 1 2 3 4 5 6 7 8 9 10 11 12 13 14 15 16 17 18 19 20 21 22 23 24 25 26

000
FTUS41 KLWX 061742
TAFIAD
TAF
KIAD 061742Z 0618/0724 17009KT P6SM BKN030
     FM061900 16010KT 5SM -SHRA VCTS BKN050CB
      TEMPO 0620/0623 2SM -TSRA
     FM062300 13006KT 6SM -SHRA VCTS BKN050CB
     FM070100 VRB05KT P6SM SCT050 BKN090
     FM071100 25007KT P6SM SCT040=

USA.gov is the U.S. government's official web portal to all federal, state and local government web resources and services.